Willow Springs, Illinois
Current Conditions -  °F | °C
As of 4:53 AM on Thursday 27 Nov 2014 (Local Time) from KMDW Reporting Station
Overcast Overcast  
Wind Chill: 17°   Ceiling: 8000
Heat Index: 26°   Visibility: 7mi
Dew Point: 19°   Wind: 9mph
Humidity: 75%   Direction: 310°NW
Pressure: 30.25"   Gusts: NA
Location:  41.74°N, 87.86°W
Report Text: KMDW 271053Z 31008KT 7SM BKN080 OVC110 M03/M07 A3025 RMK AO2 SLP257 T10331072
Loading
Personal Weather Stations






























Interactive Weather Map New forecast layout! Learn more

10-Day Weather Forecast

Advertisements
Track Severe Weather on mobile